createdAt,value
2019-05-06T00:00:59.184Z,9.10
2019-05-06T00:03:25.329Z,6.25
2019-05-06T00:05:54.701Z,7.78
2019-05-06T00:08:24.075Z,5.58
2019-05-06T00:10:54.254Z,7.33
2019-05-06T00:13:24.243Z,8.13
2019-05-06T00:15:54.403Z,9.18
2019-05-06T00:18:24.634Z,9.35
2019-05-06T00:20:54.820Z,5.95
2019-05-06T00:23:26.745Z,5.85
2019-05-06T00:26:00.618Z,9.58
2019-05-06T00:28:34.258Z,5.35
2019-05-06T00:31:12.746Z,10.13
2019-05-06T00:33:36.365Z,12.55
2019-05-06T00:36:06.108Z,9.30
2019-05-06T00:38:37.949Z,6.55
2019-05-06T00:41:17.597Z,12.00
2019-05-06T00:43:46.982Z,6.75
2019-05-06T00:46:16.374Z,6.95
2019-05-06T00:48:45.759Z,9.43
2019-05-06T00:51:15.140Z,10.63
2019-05-06T00:53:55.702Z,12.10
2019-05-06T00:56:25.091Z,11.78
2019-05-06T00:58:54.552Z,8.50
2019-05-06T01:01:29.458Z,8.85
2019-05-06T01:03:55.311Z,9.55
2019-05-06T01:06:24.951Z,10.88
2019-05-06T01:08:54.561Z,11.15
2019-05-06T01:11:24.039Z,9.50
2019-05-06T01:13:57.614Z,9.25
2019-05-06T01:16:27.019Z,12.65
2019-05-06T01:18:56.401Z,11.85
2019-05-06T01:21:25.808Z,8.85
2019-05-06T01:23:55.187Z,10.23
2019-05-06T01:26:24.630Z,9.90
2019-05-06T01:28:54.716Z,11.57
2019-05-06T01:31:38.865Z,9.78
2019-05-06T01:33:55.901Z,12.28
2019-05-06T01:36:25.275Z,8.28
2019-05-06T01:39:14.508Z,9.05
2019-05-06T01:41:49.005Z,13.10
2019-05-06T01:44:18.375Z,9.90
2019-05-06T01:46:47.759Z,9.28
2019-05-06T01:49:17.136Z,7.47
2019-05-06T01:51:46.512Z,11.63
2019-05-06T01:54:16.253Z,9.40
2019-05-06T01:56:46.227Z,11.00
2019-05-06T01:59:15.932Z,8.83
2019-05-06T02:01:56.910Z,8.60
2019-05-06T02:04:16.412Z,11.63
2019-05-06T02:06:45.792Z,11.03
2019-05-06T02:09:17.434Z,10.15
2019-05-06T02:11:48.052Z,10.93
2019-05-06T02:14:17.931Z,8.85
2019-05-06T02:16:47.316Z,9.45
2019-05-06T02:19:16.703Z,11.70
2019-05-06T02:21:47.720Z,8.53
2019-05-06T02:24:18.768Z,8.08
2019-05-06T02:26:48.140Z,11.33
2019-05-06T02:29:19.155Z,10.10
2019-05-06T02:32:17.493Z,10.03
2019-05-06T02:34:36.509Z,9.70
2019-05-06T02:37:10.373Z,9.07
2019-05-06T02:39:39.739Z,9.48
2019-05-06T02:42:09.736Z,8.75
2019-05-06T02:44:43.853Z,7.80
2019-05-06T02:47:25.533Z,10.03
2019-05-06T02:49:56.545Z,7.05
2019-05-06T02:52:25.914Z,13.05
2019-05-06T02:54:55.284Z,11.00
2019-05-06T02:57:24.667Z,8.13
2019-05-06T02:59:55.239Z,15.48
2019-05-06T03:02:38.085Z,8.70
2019-05-06T03:04:56.434Z,8.75
2019-05-06T03:07:25.813Z,12.37
2019-05-06T03:09:55.184Z,11.70
2019-05-06T03:12:24.571Z,14.85
2019-05-06T03:14:53.943Z,6.97
2019-05-06T03:17:23.713Z,9.53
2019-05-06T03:19:54.828Z,9.28
2019-05-06T03:22:28.245Z,8.55
2019-05-06T03:24:59.257Z,10.60
2019-05-06T03:27:29.179Z,8.15
2019-05-06T03:29:58.552Z,13.05
2019-05-06T03:32:30.794Z,13.93
2019-05-06T03:35:23.820Z,12.55
2019-05-06T03:37:33.294Z,9.95
2019-05-06T03:40:02.954Z,14.90
2019-05-06T03:42:33.422Z,17.77
2019-05-06T03:45:06.973Z,12.40
2019-05-06T03:47:38.015Z,15.40
2019-05-06T03:50:08.961Z,13.58
2019-05-06T03:52:38.306Z,12.50
2019-05-06T03:55:08.949Z,14.35
2019-05-06T03:57:39.190Z,12.43
2019-05-06T04:00:12.972Z,10.16
2019-05-06T04:02:43.705Z,13.65
2019-05-06T04:05:13.567Z,11.17
2019-05-06T04:07:45.985Z,14.30
2019-05-06T04:10:15.129Z,13.40
2019-05-06T04:12:45.571Z,16.00
2019-05-06T04:15:15.345Z,12.50
2019-05-06T04:17:53.970Z,14.00
2019-05-06T04:20:24.761Z,17.93
2019-05-06T04:22:58.961Z,12.33
2019-05-06T04:25:48.355Z,12.47
2019-05-06T04:28:19.386Z,11.48
2019-05-06T04:30:49.411Z,14.75
2019-05-06T04:33:19.327Z,13.58
2019-05-06T04:35:48.729Z,13.10
2019-05-06T04:38:18.182Z,10.50
2019-05-06T04:40:48.236Z,12.78
2019-05-06T04:43:17.701Z,10.65
2019-05-06T04:45:47.973Z,16.73
2019-05-06T04:48:17.343Z,17.32
2019-05-06T04:50:46.725Z,16.85
2019-05-06T04:53:16.159Z,17.40
2019-05-06T04:55:45.997Z,16.50
2019-05-06T04:58:15.429Z,18.73
2019-05-06T05:00:44.925Z,14.65
2019-05-06T05:03:14.383Z,11.22
2019-05-06T05:05:44.809Z,11.88
2019-05-06T05:08:15.301Z,14.43
2019-05-06T05:10:49.449Z,19.02
2019-05-06T05:13:36.351Z,11.43
2019-05-06T05:16:10.079Z,10.25
2019-05-06T05:18:53.134Z,15.53
2019-05-06T05:21:22.945Z,15.23
2019-05-06T05:23:53.024Z,18.87
2019-05-06T05:26:22.687Z,16.42
2019-05-06T05:28:53.249Z,13.22
2019-05-06T05:31:23.041Z,12.00
2019-05-06T05:33:53.086Z,16.37
2019-05-06T05:36:23.211Z,16.12
2019-05-06T05:38:52.676Z,12.65
2019-05-06T05:41:23.307Z,15.95
2019-05-06T05:43:55.125Z,16.60
2019-05-06T05:46:25.028Z,15.78
2019-05-06T05:49:09.259Z,13.55
2019-05-06T05:54:07.235Z,13.25
2019-05-06T05:56:36.622Z,12.60
2019-05-06T05:59:06.369Z,11.43
2019-05-06T06:01:35.822Z,14.98
2019-05-06T06:04:05.580Z,11.65
2019-05-06T06:06:35.030Z,14.47
2019-05-06T06:09:07.023Z,10.85
2019-05-06T06:11:53.006Z,14.18
2019-05-06T06:14:29.768Z,15.50
2019-05-06T06:17:16.911Z,12.20
2019-05-06T06:19:47.925Z,9.93
2019-05-06T06:24:53.844Z,21.50
2019-05-06T06:27:23.226Z,13.95
2019-05-06T06:29:52.954Z,15.23
2019-05-06T06:32:26.939Z,11.55
2019-05-06T06:35:08.331Z,11.48
2019-05-06T06:37:33.045Z,14.58
2019-05-06T06:40:03.958Z,11.05
2019-05-06T06:42:33.613Z,9.33
2019-05-06T06:45:03.796Z,9.35
2019-05-06T06:47:33.233Z,12.30
2019-05-06T06:50:02.988Z,12.53
2019-05-06T06:52:33.576Z,15.75
2019-05-06T06:55:03.029Z,8.53
2019-05-06T06:57:34.545Z,10.43
2019-05-06T07:00:23.144Z,12.88
2019-05-06T07:03:02.734Z,9.45
2019-05-06T07:05:42.346Z,10.38
2019-05-06T07:08:12.652Z,7.83
2019-05-06T07:10:44.970Z,9.68
2019-05-06T07:13:18.211Z,9.63
2019-05-06T07:15:47.573Z,7.90
2019-05-06T07:18:16.941Z,11.68
2019-05-06T07:21:05.275Z,9.85
2019-05-06T07:23:37.584Z,14.73
2019-05-06T07:26:06.933Z,9.57
2019-05-06T07:28:36.317Z,9.70
2019-05-06T07:31:20.794Z,10.10
2019-05-06T07:33:37.021Z,8.63
2019-05-06T07:36:06.459Z,7.37
2019-05-06T07:38:35.824Z,8.38
2019-05-06T07:41:06.829Z,9.43
2019-05-06T07:43:49.672Z,11.20
2019-05-06T07:46:36.889Z,9.58
2019-05-06T07:49:06.270Z,7.33
2019-05-06T07:51:35.662Z,7.40
2019-05-06T07:54:06.155Z,8.03
2019-05-06T07:56:36.331Z,10.25
2019-05-06T07:59:08.391Z,13.75
2019-05-06T08:01:40.196Z,8.58
2019-05-06T08:04:12.015Z,5.78
2019-05-06T08:06:42.668Z,7.45
2019-05-06T08:09:13.277Z,7.58
2019-05-06T08:11:43.196Z,8.08
2019-05-06T08:14:13.259Z,6.85
2019-05-06T08:16:45.019Z,8.35
2019-05-06T08:19:14.423Z,7.90
2019-05-06T08:21:48.089Z,9.40
2019-05-06T08:24:17.455Z,5.50
2019-05-06T08:26:47.035Z,6.50
2019-05-06T08:29:16.404Z,7.12
2019-05-06T08:31:45.780Z,4.87
2019-05-06T08:34:15.185Z,7.28
2019-05-06T08:36:46.218Z,7.92
2019-05-06T08:39:15.595Z,5.62
2019-05-06T08:41:44.998Z,12.03
2019-05-06T08:44:14.392Z,8.65
2019-05-06T08:46:43.857Z,5.87
2019-05-06T08:49:14.038Z,4.30
2019-05-06T08:51:56.776Z,7.08
2019-05-06T08:54:32.362Z,6.08
2019-05-06T08:57:02.649Z,7.67
2019-05-06T08:59:32.249Z,15.90
2019-05-06T09:02:03.325Z,7.30
2019-05-06T09:04:32.961Z,7.83
2019-05-06T09:07:03.059Z,7.55
2019-05-06T09:09:33.015Z,4.70
2019-05-06T09:12:02.832Z,10.90
2019-05-06T09:14:32.811Z,5.97
2019-05-06T09:17:03.040Z,8.33
2019-05-06T09:19:33.328Z,5.97
2019-05-06T09:22:02.808Z,5.70
2019-05-06T09:24:32.331Z,6.53
2019-05-06T09:27:09.050Z,6.70
2019-05-06T09:29:43.237Z,5.30
2019-05-06T09:32:14.171Z,4.58
2019-05-06T09:34:47.947Z,10.43
2019-05-06T09:37:18.395Z,5.97
2019-05-06T09:39:48.295Z,5.25
2019-05-06T09:42:18.053Z,10.10
2019-05-06T09:44:50.901Z,9.03
2019-05-06T09:47:28.395Z,4.67
2019-05-06T09:49:58.043Z,6.90
2019-05-06T09:52:27.416Z,5.50
2019-05-06T09:55:03.233Z,5.62
2019-05-06T09:57:34.028Z,4.55
2019-05-06T10:00:08.659Z,4.42
2019-05-06T10:02:38.035Z,6.37
2019-05-06T10:05:07.903Z,5.60
2019-05-06T10:07:37.278Z,6.15
2019-05-06T10:10:07.364Z,4.90
2019-05-06T10:12:37.119Z,12.43
2019-05-06T10:15:06.825Z,11.38
2019-05-06T10:17:36.194Z,5.72
2019-05-06T10:20:07.578Z,5.40
2019-05-06T10:22:36.949Z,6.37
2019-05-06T10:25:07.670Z,4.47
2019-05-06T10:27:39.083Z,5.35
2019-05-06T10:30:14.180Z,4.62
2019-05-06T10:32:45.183Z,5.55
2019-05-06T10:35:16.107Z,7.40
2019-05-06T10:38:05.041Z,5.87
2019-05-06T10:41:00.887Z,3.62
2019-05-06T10:43:52.907Z,3.42
2019-05-06T10:46:22.717Z,4.95
2019-05-06T10:48:53.026Z,7.50
2019-05-06T10:51:24.517Z,11.53
2019-05-06T10:53:53.928Z,4.20
2019-05-06T10:56:27.716Z,5.22
2019-05-06T10:59:02.446Z,6.15
2019-05-06T11:01:46.546Z,4.40
2019-05-06T11:04:16.212Z,7.40
2019-05-06T11:06:45.612Z,5.70
2019-05-06T11:09:15.384Z,3.55
2019-05-06T11:11:44.761Z,5.22
2019-05-06T11:14:14.131Z,9.83
2019-05-06T11:16:43.509Z,7.37
2019-05-06T11:19:13.409Z,4.65
2019-05-06T11:21:45.045Z,3.80
2019-05-06T11:24:14.178Z,4.83
2019-05-06T11:26:43.582Z,4.47
2019-05-06T11:29:14.596Z,3.75
2019-05-06T11:31:45.624Z,6.00
2019-05-06T11:34:16.628Z,4.72
2019-05-06T11:36:52.403Z,4.80
2019-05-06T11:39:23.236Z,4.35
2019-05-06T11:42:14.416Z,4.00
2019-05-06T11:44:24.211Z,5.17
2019-05-06T11:46:54.303Z,6.78
2019-05-06T11:49:23.668Z,4.65
2019-05-06T11:51:53.031Z,5.10
2019-05-06T11:54:24.351Z,10.40
2019-05-06T11:56:58.121Z,5.83
2019-05-06T11:59:24.778Z,4.17
2019-05-06T12:01:56.709Z,11.00
2019-05-06T12:04:27.165Z,4.17
2019-05-06T12:07:09.861Z,4.35
2019-05-06T12:09:27.631Z,4.40
2019-05-06T12:11:57.061Z,3.37
2019-05-06T12:14:26.455Z,3.42
2019-05-06T12:16:55.860Z,5.80
2019-05-06T12:19:25.216Z,5.75
2019-05-06T12:21:54.606Z,5.05
2019-05-06T12:24:24.262Z,4.58
2019-05-06T12:26:53.625Z,7.12
2019-05-06T12:29:22.990Z,6.00
2019-05-06T12:31:56.687Z,4.75
2019-05-06T12:34:26.120Z,4.35
2019-05-06T12:36:57.125Z,4.92
2019-05-06T12:39:28.064Z,6.47
2019-05-06T12:42:14.866Z,5.30
2019-05-06T12:44:46.045Z,6.85
2019-05-06T12:47:19.609Z,7.10
2019-05-06T12:49:48.967Z,3.77
2019-05-06T12:52:18.341Z,2.62
2019-05-06T12:54:47.723Z,5.75
2019-05-06T12:57:17.090Z,6.75
2019-05-06T12:59:46.766Z,3.62
2019-05-06T13:02:16.144Z,6.62
2019-05-06T13:04:54.492Z,4.97
2019-05-06T13:07:19.251Z,6.17
2019-05-06T13:09:48.611Z,4.17
2019-05-06T13:12:19.625Z,7.33
2019-05-06T13:14:49.293Z,6.95
2019-05-06T13:17:22.755Z,4.03
2019-05-06T13:19:52.339Z,7.67
2019-05-06T13:22:24.576Z,5.55
2019-05-06T13:24:54.013Z,6.62
2019-05-06T13:27:27.279Z,5.15
2019-05-06T13:29:55.015Z,3.87
2019-05-06T13:32:26.015Z,4.08
2019-05-06T13:34:58.834Z,5.50
2019-05-06T13:37:26.561Z,4.83
2019-05-06T13:39:56.013Z,4.05
2019-05-06T13:42:27.035Z,8.53
2019-05-06T13:44:56.624Z,8.98
2019-05-06T13:47:27.653Z,3.03
2019-05-06T13:49:58.666Z,5.97
2019-05-06T13:52:30.630Z,8.28
2019-05-06T13:55:02.374Z,3.25
2019-05-06T13:57:32.076Z,8.90
2019-05-06T14:00:03.105Z,4.03
2019-05-06T14:02:34.318Z,6.90
2019-05-06T14:05:05.003Z,6.67
2019-05-06T14:07:34.894Z,3.87
2019-05-06T14:10:08.258Z,4.50
2019-05-06T14:12:37.625Z,6.33
2019-05-06T14:15:09.103Z,5.05
2019-05-06T14:17:38.483Z,7.00
2019-05-06T14:20:08.484Z,4.60
2019-05-06T14:22:37.870Z,4.83
2019-05-06T14:25:23.328Z,4.80
2019-05-06T14:27:54.640Z,6.22
2019-05-06T14:30:32.176Z,4.37
2019-05-06T14:33:03.286Z,4.95
2019-05-06T14:35:33.036Z,8.25
2019-05-06T14:38:03.364Z,3.58
2019-05-06T14:40:34.500Z,5.83
2019-05-06T14:43:05.282Z,6.17
2019-05-06T14:45:35.025Z,3.08
2019-05-06T14:48:04.688Z,6.22
2019-05-06T14:50:45.206Z,7.80
2019-05-06T14:53:05.291Z,7.95
2019-05-06T14:55:36.291Z,7.87
2019-05-06T14:58:05.668Z,7.85
2019-05-06T15:00:35.040Z,6.55
2019-05-06T15:03:04.526Z,3.72
2019-05-06T15:05:36.174Z,5.40
2019-05-06T15:08:05.043Z,6.08
2019-05-06T15:10:34.839Z,17.30
2019-05-06T15:13:05.139Z,4.37
2019-05-06T15:15:34.511Z,10.45
2019-05-06T15:18:04.073Z,15.72
2019-05-06T15:20:34.237Z,9.50
2019-05-06T15:23:04.500Z,6.97
2019-05-06T15:25:34.115Z,4.50
2019-05-06T15:28:03.483Z,10.08
2019-05-06T15:30:34.497Z,7.08
2019-05-06T15:33:05.906Z,3.90
2019-05-06T15:35:36.912Z,6.03
2019-05-06T15:38:07.912Z,5.97
2019-05-06T15:40:37.298Z,3.25
2019-05-06T15:43:06.666Z,15.50
2019-05-06T15:45:36.304Z,8.40
2019-05-06T15:48:05.758Z,5.75
2019-05-06T15:50:35.139Z,5.92
2019-05-06T15:53:04.515Z,5.05
2019-05-06T15:55:34.215Z,4.23
2019-05-06T15:58:03.727Z,5.72
2019-05-06T16:00:33.317Z,4.92
2019-05-06T16:03:02.882Z,5.67
2019-05-06T16:05:34.416Z,3.85
2019-05-06T16:08:04.513Z,7.47
2019-05-06T16:10:50.411Z,4.60
2019-05-06T16:13:05.240Z,7.35
2019-05-06T16:15:35.992Z,6.00
2019-05-06T16:18:05.625Z,4.03
2019-05-06T16:20:34.986Z,5.15
2019-05-06T16:23:11.808Z,6.47
2019-05-06T16:25:42.310Z,7.78
2019-05-06T16:28:12.927Z,5.17
2019-05-06T16:30:42.747Z,4.87
2019-05-06T16:33:15.300Z,3.75
2019-05-06T16:35:43.628Z,6.78
2019-05-06T16:38:13.306Z,3.80
2019-05-06T16:40:45.418Z,4.47
2019-05-06T16:43:13.856Z,5.37
2019-05-06T16:45:45.455Z,5.53
2019-05-06T16:48:14.836Z,4.17
2019-05-06T16:50:44.221Z,6.30
2019-05-06T16:53:13.584Z,5.47
2019-05-06T16:55:56.526Z,5.85
2019-05-06T16:58:33.379Z,3.40
2019-05-06T17:01:03.320Z,4.83
2019-05-06T17:03:43.515Z,2.72
2019-05-06T17:06:17.372Z,2.87
2019-05-06T17:08:46.734Z,3.75
2019-05-06T17:11:26.835Z,4.60
2019-05-06T17:13:47.517Z,2.85
2019-05-06T17:16:17.100Z,4.40
2019-05-06T17:18:47.777Z,3.22
2019-05-06T17:21:17.165Z,4.40
2019-05-06T17:23:46.547Z,4.42
2019-05-06T17:26:15.907Z,4.40
2019-05-06T17:28:47.101Z,3.35
2019-05-06T17:31:23.905Z,8.88
2019-05-06T17:33:57.307Z,5.53
2019-05-06T17:36:28.319Z,4.45
2019-05-06T17:38:57.694Z,6.03
2019-05-06T17:41:41.712Z,3.65
2019-05-06T17:43:58.171Z,4.80
2019-05-06T17:46:29.180Z,4.65
2019-05-06T17:49:03.378Z,4.72
2019-05-06T17:51:42.877Z,5.85
2019-05-06T17:54:12.414Z,4.47
2019-05-06T17:56:42.003Z,4.00
2019-05-06T17:59:11.359Z,6.30
2019-05-06T18:01:42.362Z,3.45
2019-05-06T18:04:12.679Z,3.42
2019-05-06T18:06:42.619Z,3.72
2019-05-06T18:09:12.789Z,3.72
2019-05-06T18:11:46.822Z,6.47
2019-05-06T18:14:13.542Z,8.38
2019-05-06T18:16:42.940Z,3.90
2019-05-06T18:19:12.746Z,4.70
2019-05-06T18:21:43.422Z,5.47
2019-05-06T18:24:13.064Z,4.35
2019-05-06T18:26:42.548Z,4.03
2019-05-06T18:29:12.514Z,5.53
2019-05-06T18:31:42.752Z,3.70
2019-05-06T18:34:12.864Z,3.80
2019-05-06T18:36:43.075Z,3.83
2019-05-06T18:39:12.780Z,3.12
2019-05-06T18:41:42.376Z,3.25
2019-05-06T18:44:12.108Z,2.72
2019-05-06T18:46:42.018Z,3.52
2019-05-06T18:49:13.064Z,4.33
2019-05-06T18:51:42.836Z,3.47
2019-05-06T18:54:12.590Z,1.62
2019-05-06T18:56:42.952Z,2.08
2019-05-06T18:59:12.643Z,1.67
2019-05-06T19:01:43.389Z,1.22
2019-05-06T19:04:14.978Z,1.82
2019-05-06T19:06:44.063Z,2.10
2019-05-06T19:09:17.891Z,4.95
2019-05-06T19:11:47.264Z,2.08
2019-05-06T19:14:16.624Z,2.02
2019-05-06T19:16:51.745Z,3.15
2019-05-06T19:19:17.301Z,3.80
2019-05-06T19:21:46.675Z,2.80
2019-05-06T19:24:17.143Z,2.47
2019-05-06T19:26:46.519Z,4.20
2019-05-06T19:29:15.896Z,1.60
2019-05-06T19:31:45.261Z,2.62
2019-05-06T19:34:14.655Z,2.08
2019-05-06T19:36:44.028Z,2.22
2019-05-06T19:39:13.429Z,4.35
2019-05-06T19:41:43.405Z,1.20
2019-05-06T19:44:12.940Z,1.95
2019-05-06T19:46:42.541Z,1.50
2019-05-06T19:49:11.858Z,1.75
2019-05-06T19:51:42.809Z,1.82
2019-05-06T19:54:12.769Z,1.57
2019-05-06T19:56:42.403Z,1.75
2019-05-06T19:59:12.972Z,1.92
2019-05-06T20:01:43.060Z,3.95
2019-05-06T20:04:13.308Z,1.25
2019-05-06T20:07:02.359Z,2.08
2019-05-06T20:09:42.695Z,2.95
2019-05-06T20:12:25.843Z,1.25
2019-05-06T20:14:56.904Z,1.77
2019-05-06T20:17:26.281Z,3.95
2019-05-06T20:19:55.642Z,2.52
2019-05-06T20:22:25.363Z,1.72
2019-05-06T20:24:55.659Z,1.35
2019-05-06T20:27:25.018Z,1.82
2019-05-06T20:29:54.403Z,2.52
2019-05-06T20:32:23.763Z,2.12
2019-05-06T20:34:53.131Z,1.62
2019-05-06T20:37:22.513Z,2.12
2019-05-06T20:39:51.883Z,2.42
2019-05-06T20:42:22.238Z,3.47
2019-05-06T20:44:52.544Z,2.22
2019-05-06T20:47:21.896Z,2.62
2019-05-06T20:49:52.587Z,3.65
2019-05-06T20:52:22.997Z,2.58
2019-05-06T20:54:52.593Z,2.92
2019-05-06T20:57:23.053Z,3.00
2019-05-06T20:59:52.703Z,3.25
2019-05-06T21:02:25.586Z,2.33
2019-05-06T21:04:53.240Z,3.10
2019-05-06T21:07:23.170Z,2.58
2019-05-06T21:09:52.752Z,2.35
2019-05-06T21:12:22.123Z,3.27
2019-05-06T21:14:51.502Z,3.98
2019-05-06T21:17:22.867Z,4.50
2019-05-06T21:19:52.410Z,4.03
2019-05-06T21:22:21.770Z,2.30
2019-05-06T21:24:51.134Z,2.00
2019-05-06T21:27:23.017Z,3.83
2019-05-06T21:29:52.907Z,2.27
2019-05-06T21:32:22.267Z,3.33
2019-05-06T21:34:52.523Z,2.65
2019-05-06T21:37:22.980Z,3.35
2019-05-06T21:39:53.006Z,4.92
2019-05-06T21:42:24.076Z,4.67
2019-05-06T21:44:53.648Z,3.65
2019-05-06T21:47:23.005Z,4.50
2019-05-06T21:49:52.884Z,4.08
2019-05-06T21:52:34.317Z,2.75
2019-05-06T21:54:53.668Z,4.50
2019-05-06T21:57:23.321Z,3.55
2019-05-06T21:59:52.748Z,2.55
2019-05-06T22:02:23.018Z,3.00
2019-05-06T22:04:55.494Z,4.00
2019-05-06T22:07:23.840Z,3.83
2019-05-06T22:09:53.210Z,4.50
2019-05-06T22:12:24.483Z,4.65
2019-05-06T22:14:53.753Z,3.70
2019-05-06T22:17:23.125Z,4.00
2019-05-06T22:19:53.154Z,4.00
2019-05-06T22:22:24.175Z,4.40
2019-05-06T22:24:57.599Z,4.15
2019-05-06T22:27:26.619Z,3.00
2019-05-06T22:29:57.312Z,4.37
2019-05-06T22:32:27.048Z,3.80
2019-05-06T22:34:56.410Z,3.77
2019-05-06T22:37:26.053Z,4.25
2019-05-06T22:39:55.424Z,3.22
2019-05-06T22:42:25.062Z,2.67
2019-05-06T22:44:54.767Z,5.40
2019-05-06T22:47:24.127Z,3.58
2019-05-06T22:49:54.342Z,3.35
2019-05-06T22:52:23.884Z,4.47
2019-05-06T22:54:53.251Z,3.37
2019-05-06T22:57:23.549Z,4.83
2019-05-06T22:59:53.822Z,4.10
2019-05-06T23:02:36.640Z,4.90
2019-05-06T23:05:08.734Z,3.20
2019-05-06T23:07:38.113Z,3.60
2019-05-06T23:10:08.844Z,4.60
2019-05-06T23:12:38.271Z,4.65
2019-05-06T23:15:09.516Z,3.42
2019-05-06T23:17:38.885Z,2.85
2019-05-06T23:20:10.667Z,3.56
2019-05-06T23:22:42.228Z,3.65
2019-05-06T23:25:12.556Z,6.78
2019-05-06T23:27:44.147Z,4.10
2019-05-06T23:30:13.749Z,3.35
2019-05-06T23:32:44.165Z,5.33
2019-05-06T23:35:13.610Z,4.38
2019-05-06T23:38:37.820Z,4.60
2019-05-06T23:42:02.003Z,4.13
2019-05-06T23:45:26.268Z,4.03
2019-05-06T23:48:52.324Z,5.22
2019-05-06T23:52:16.763Z,4.80
2019-05-06T23:55:41.872Z,3.65
2019-05-06T23:58:14.478Z,6.83
